Time;durP1;ratioP1;P1;durP2;ratioP2;P2;SDS_P1;SDS_P2;PMS_P1;PMS_P2;Temp;Humidity;BMP_temperature;BMP_pressure;BME280_temperature;BME280_humidity;BME280_pressure;Samples;Min_cycle;Max_cycle;Signal;HPM_P1;HPM_P2
2021/10/05 00:02:09;;;;;;;11.77;7.53;;;14.90;1.00;;;;;;5116514;27;20968;-81
2021/10/05 00:04:36;;;;;;;8.90;6.83;;;14.90;1.00;;;;;;5094662;27;20545;-81
2021/10/05 00:07:03;;;;;;;7.53;6.73;;;15.00;1.00;;;;;;5109125;27;20450;-81
2021/10/05 00:09:30;;;;;;;8.37;6.77;;;14.90;1.00;;;;;;5110779;27;20457;-81
2021/10/05 00:11:58;;;;;;;7.33;6.10;;;14.90;1.00;;;;;;5101242;27;20450;-82
2021/10/05 00:14:25;;;;;;;8.17;6.33;;;14.90;1.00;;;;;;5091994;27;20455;-80
2021/10/05 00:16:52;;;;;;;7.77;7.00;;;15.00;1.00;;;;;;5113502;27;20410;-80
2021/10/05 00:19:18;;;;;;;7.13;6.43;;;14.90;1.00;;;;;;5113652;27;20809;-81
2021/10/05 00:21:45;;;;;;;7.13;6.43;;;14.90;1.00;;;;;;5119408;27;20486;-80
2021/10/05 00:24:12;;;;;;;7.27;6.23;;;14.90;1.00;;;;;;5095273;27;20460;-81
2021/10/05 00:26:39;;;;;;;7.43;6.57;;;14.90;1.00;;;;;;5119190;27;20442;-80
2021/10/05 00:29:07;;;;;;;7.70;6.77;;;14.90;1.00;;;;;;5111946;27;21261;-81
2021/10/05 00:31:34;;;;;;;6.90;6.07;;;14.90;1.00;;;;;;5113403;27;20461;-80
2021/10/05 00:34:02;;;;;;;9.77;6.20;;;15.00;1.00;;;;;;5100153;27;20504;-80
2021/10/05 00:36:29;;;;;;;7.53;6.47;;;15.00;1.00;;;;;;5110435;27;20449;-80
2021/10/05 00:38:56;;;;;;;7.83;6.47;;;15.00;1.00;;;;;;5114328;27;20450;-80
2021/10/05 00:41:22;;;;;;;8.80;6.17;;;15.10;1.00;;;;;;5110472;27;20459;-79
2021/10/05 00:43:49;;;;;;;7.33;6.50;;;15.00;1.00;;;;;;5113361;27;20568;-81
2021/10/05 00:46:21;;;;;;;10.23;6.67;;;15.00;1.00;;;;;;5114263;27;20452;-81
2021/10/05 00:48:48;;;;;;;7.57;6.13;;;15.00;1.00;;;;;;5115766;27;21204;-82
2021/10/05 00:51:15;;;;;;;7.80;6.60;;;15.10;1.00;;;;;;5108958;27;20461;-80
2021/10/05 00:53:42;;;;;;;6.17;5.40;;;15.00;1.00;;;;;;5103290;27;20450;-81
2021/10/05 00:56:08;;;;;;;9.63;5.97;;;15.10;1.00;;;;;;5113822;27;20405;-81
2021/10/05 00:58:35;;;;;;;7.23;6.20;;;15.00;1.00;;;;;;5143105;27;20454;-80
2021/10/05 01:01:02;;;;;;;6.17;5.43;;;15.10;1.00;;;;;;5134237;27;20461;-81
2021/10/05 01:03:30;;;;;;;5.90;5.10;;;15.10;1.00;;;;;;5118789;27;20444;-80
2021/10/05 01:05:57;;;;;;;7.30;5.17;;;15.00;1.00;;;;;;5118854;27;20466;-80
2021/10/05 01:08:23;;;;;;;7.53;5.20;;;15.00;1.00;;;;;;5114426;27;20447;-83
2021/10/05 01:10:50;;;;;;;6.90;5.30;;;15.00;1.00;;;;;;5104017;27;20467;-78
2021/10/05 01:13:17;;;;;;;6.17;4.67;;;15.10;1.00;;;;;;5105212;27;20458;-78
2021/10/05 01:15:44;;;;;;;6.23;5.20;;;15.10;1.00;;;;;;5113423;27;20440;-80
2021/10/05 01:18:11;;;;;;;6.30;4.77;;;15.10;1.00;;;;;;5105758;27;20848;-79
2021/10/05 01:20:52;;;;;;;7.87;4.60;;;15.00;1.00;;;;;;5107603;27;20478;-80
2021/10/05 01:23:19;;;;;;;5.80;4.90;;;15.00;1.00;;;;;;5111509;27;20551;-78
2021/10/05 01:25:45;;;;;;;6.83;4.60;;;15.10;1.00;;;;;;5111954;27;20477;-79
2021/10/05 01:28:14;;;;;;;6.80;5.10;;;15.10;1.00;;;;;;5113901;27;20454;-80
2021/10/05 01:30:41;;;;;;;8.37;4.17;;;15.10;1.00;;;;;;5111117;27;20520;-79
2021/10/05 01:33:07;;;;;;;4.90;3.90;;;15.10;1.00;;;;;;5115483;27;20824;-80
2021/10/05 01:35:35;;;;;;;4.43;4.00;;;15.10;1.00;;;;;;5112478;27;20427;-79
2021/10/05 01:38:03;;;;;;;5.43;4.60;;;15.00;1.00;;;;;;5099256;27;20455;-79
2021/10/05 01:40:30;;;;;;;4.50;3.60;;;15.00;1.00;;;;;;5109253;27;21384;-79
2021/10/05 01:42:57;;;;;;;6.13;4.60;;;15.00;1.00;;;;;;5099786;27;20454;-79
2021/10/05 01:45:24;;;;;;;8.30;5.20;;;15.00;1.00;;;;;;5114401;27;20590;-81
2021/10/05 01:47:51;;;;;;;5.30;4.47;;;15.00;1.00;;;;;;5116907;27;21466;-79
2021/10/05 01:50:18;;;;;;;5.37;3.93;;;14.90;1.00;;;;;;5110611;27;20476;-79
2021/10/05 01:52:46;;;;;;;8.10;4.57;;;14.90;1.00;;;;;;5114683;27;20486;-80
2021/10/05 01:55:15;;;;;;;8.17;4.80;;;14.90;1.00;;;;;;5120083;27;20470;-80
2021/10/05 01:57:42;;;;;;;6.00;4.33;;;14.80;1.00;;;;;;5115625;27;20538;-79
2021/10/05 02:00:10;;;;;;;6.37;5.50;;;14.80;1.00;;;;;;5128592;27;20458;-79
2021/10/05 02:02:37;;;;;;;5.33;3.83;;;14.90;1.00;;;;;;5130242;27;24808;-79
2021/10/05 02:05:04;;;;;;;6.30;3.60;;;14.90;1.00;;;;;;5120689;27;20539;-80
2021/10/05 02:07:31;;;;;;;6.03;3.93;;;14.90;1.00;;;;;;5112248;27;20434;-79
2021/10/05 02:09:58;;;;;;;6.47;3.67;;;14.90;1.00;;;;;;5117306;27;20449;-79
2021/10/05 02:12:27;;;;;;;8.73;4.33;;;14.90;1.00;;;;;;5111592;27;20458;-79
2021/10/05 02:14:54;;;;;;;5.07;3.60;;;14.90;1.00;;;;;;5118596;27;21058;-79
2021/10/05 02:17:21;;;;;;;8.03;3.53;;;14.90;1.00;;;;;;5115182;27;21434;-79
2021/10/05 02:19:48;;;;;;;4.80;3.07;;;14.80;1.00;;;;;;5111804;27;20454;-81
2021/10/05 02:22:14;;;;;;;8.20;3.40;;;14.80;1.00;;;;;;5107743;27;20454;-80
2021/10/05 02:24:42;;;;;;;6.13;3.70;;;14.80;1.00;;;;;;5114868;27;21533;-81
2021/10/05 02:27:10;;;;;;;6.70;4.30;;;14.80;1.00;;;;;;5092724;27;20588;-80
2021/10/05 02:29:38;;;;;;;9.37;3.90;;;14.70;1.00;;;;;;5116092;27;20910;-79
2021/10/05 02:32:06;;;;;;;9.70;3.27;;;14.60;1.00;;;;;;5112996;27;20521;-81
2021/10/05 02:34:33;;;;;;;4.73;3.40;;;14.60;1.00;;;;;;5112538;27;20561;-80
2021/10/05 02:36:59;;;;;;;5.77;3.40;;;14.50;1.00;;;;;;5113760;27;20441;-80
2021/10/05 02:39:26;;;;;;;7.87;3.00;;;14.50;1.00;;;;;;5126033;27;20625;-79
2021/10/05 02:41:53;;;;;;;4.00;2.30;;;14.50;1.00;;;;;;5138241;27;20493;-80
2021/10/05 02:44:20;;;;;;;5.63;3.30;;;14.50;1.00;;;;;;5125598;27;20449;-81
2021/10/05 02:46:48;;;;;;;4.97;3.17;;;14.50;1.00;;;;;;5116173;27;20458;-81
2021/10/05 02:49:15;;;;;;;5.97;3.80;;;14.40;1.00;;;;;;5116854;27;20500;-81
2021/10/05 02:51:42;;;;;;;5.93;2.70;;;14.30;1.00;;;;;;5110475;27;20445;-82
2021/10/05 02:54:10;;;;;;;7.33;3.00;;;14.30;1.00;;;;;;5113973;27;20457;-82
2021/10/05 02:56:36;;;;;;;4.93;2.83;;;14.30;1.00;;;;;;5114434;27;23294;-81
2021/10/05 02:59:03;;;;;;;4.93;2.30;;;14.20;1.00;;;;;;5116766;27;20445;-82
2021/10/05 03:01:30;;;;;;;6.03;2.97;;;14.20;1.00;;;;;;5114610;27;21272;-82
2021/10/05 03:03:58;;;;;;;7.60;3.50;;;14.20;1.00;;;;;;5122074;27;20442;-82
2021/10/05 03:06:25;;;;;;;5.07;2.80;;;14.20;1.00;;;;;;5115952;27;20480;-81
2021/10/05 03:08:54;;;;;;;9.20;3.43;;;14.10;1.00;;;;;;5114696;27;20465;-81
2021/10/05 03:11:22;;;;;;;7.00;2.83;;;14.10;1.00;;;;;;5115210;27;20465;-80
2021/10/05 03:13:48;;;;;;;5.00;2.40;;;14.20;1.00;;;;;;5115919;27;20487;-82
2021/10/05 03:16:15;;;;;;;8.00;3.17;;;14.20;1.00;;;;;;5112502;27;20445;-81
2021/10/05 03:18:43;;;;;;;7.90;3.17;;;14.20;1.00;;;;;;5115024;27;20449;-80
2021/10/05 03:21:12;;;;;;;10.50;3.23;;;14.20;1.00;;;;;;5115697;27;20456;-81
2021/10/05 03:23:38;;;;;;;3.63;2.67;;;14.30;1.00;;;;;;5114319;27;21375;-82
2021/10/05 03:26:05;;;;;;;5.60;3.60;;;14.30;1.00;;;;;;5118675;27;20421;-82
2021/10/05 03:28:32;;;;;;;5.00;2.60;;;14.40;1.00;;;;;;5100707;27;20473;-80
2021/10/05 03:30:59;;;;;;;5.77;2.90;;;14.40;1.00;;;;;;5100743;27;24706;-79
2021/10/05 03:33:27;;;;;;;7.07;3.03;;;14.40;1.00;;;;;;5111836;27;20469;-80
2021/10/05 03:35:53;;;;;;;5.30;2.63;;;14.40;1.00;;;;;;5103535;27;20975;-81
2021/10/05 03:38:22;;;;;;;8.37;5.20;;;14.40;1.00;;;;;;5101795;27;20432;-80
2021/10/05 03:40:49;;;;;;;7.30;2.80;;;14.40;1.00;;;;;;5120996;27;20437;-81
2021/10/05 03:43:16;;;;;;;4.33;2.60;;;14.40;1.00;;;;;;5101308;27;20552;-81
2021/10/05 03:45:43;;;;;;;6.07;3.03;;;14.40;1.00;;;;;;5118377;27;20428;-79
2021/10/05 03:48:09;;;;;;;2.93;2.20;;;14.40;1.00;;;;;;5128896;27;20497;-79
2021/10/05 03:50:36;;;;;;;5.60;3.30;;;14.40;1.00;;;;;;5131325;27;20461;-79
2021/10/05 03:53:03;;;;;;;5.20;2.53;;;14.30;1.00;;;;;;5119942;27;20458;-81
2021/10/05 03:55:31;;;;;;;6.67;2.70;;;14.30;1.00;;;;;;5133754;27;21341;-80
2021/10/05 03:57:57;;;;;;;5.73;3.17;;;14.30;1.00;;;;;;5125767;27;20418;-81
2021/10/05 04:00:24;;;;;;;8.67;4.30;;;14.30;1.00;;;;;;5122537;27;21443;-82
2021/10/05 04:02:52;;;;;;;4.20;2.93;;;14.30;1.00;;;;;;5122103;27;24979;-82
2021/10/05 04:05:18;;;;;;;4.37;2.60;;;14.30;1.00;;;;;;5110680;27;20460;-81
2021/10/05 04:07:45;;;;;;;5.83;5.20;;;14.20;1.00;;;;;;5103827;27;21296;-79
2021/10/05 04:10:12;;;;;;;7.30;3.87;;;14.20;1.00;;;;;;5117896;27;20397;-81
2021/10/05 04:12:40;;;;;;;11.97;5.33;;;14.20;1.00;;;;;;5125160;27;20437;-80
2021/10/05 04:15:07;;;;;;;9.20;3.83;;;14.20;1.00;;;;;;5118475;27;20527;-81
2021/10/05 04:17:34;;;;;;;5.40;3.43;;;14.10;1.00;;;;;;5123956;27;20489;-78
2021/10/05 04:20:00;;;;;;;6.70;3.27;;;14.00;1.00;;;;;;5124145;27;21532;-79
2021/10/05 04:22:28;;;;;;;7.80;3.30;;;14.00;1.00;;;;;;5114468;27;20463;-78
2021/10/05 04:24:57;;;;;;;3.97;2.50;;;14.00;1.00;;;;;;5112584;27;21170;-82
2021/10/05 04:27:24;;;;;;;9.80;3.70;;;14.00;1.00;;;;;;5123078;27;20469;-84
2021/10/05 04:29:52;;;;;;;4.57;3.27;;;14.00;1.00;;;;;;5126008;27;20534;-83
2021/10/05 04:32:18;;;;;;;4.30;2.70;;;14.10;1.00;;;;;;5126763;27;20472;-83
2021/10/05 04:34:47;;;;;;;6.17;3.30;;;14.10;1.00;;;;;;5149414;27;20464;-83
2021/10/05 04:37:13;;;;;;;7.50;2.90;;;14.00;1.00;;;;;;5138304;27;20431;-81
2021/10/05 04:39:40;;;;;;;4.60;3.33;;;14.00;1.00;;;;;;5131101;27;20442;-79
2021/10/05 04:42:07;;;;;;;11.13;7.37;;;14.00;1.00;;;;;;5110030;27;20456;-78
2021/10/05 04:44:34;;;;;;;5.67;4.10;;;14.10;1.00;;;;;;5127013;27;20481;-78
2021/10/05 04:47:02;;;;;;;5.50;3.80;;;14.10;1.00;;;;;;5124654;27;20456;-78
2021/10/05 04:49:28;;;;;;;4.90;3.33;;;14.10;1.00;;;;;;5122186;27;20432;-79
2021/10/05 04:51:55;;;;;;;5.07;3.27;;;14.10;1.00;;;;;;5113288;27;20444;-78
2021/10/05 04:54:22;;;;;;;8.53;4.03;;;14.10;1.00;;;;;;5114466;27;20463;-78
2021/10/05 04:56:49;;;;;;;6.03;3.20;;;14.10;1.00;;;;;;5087560;27;21233;-79
2021/10/05 04:59:17;;;;;;;7.47;3.30;;;14.10;1.00;;;;;;5110004;27;20645;-78
2021/10/05 05:01:44;;;;;;;3.80;3.17;;;14.10;1.00;;;;;;5114287;27;20534;-78
2021/10/05 05:04:12;;;;;;;5.30;3.73;;;14.10;1.00;;;;;;5116907;27;21005;-77
2021/10/05 05:06:39;;;;;;;7.50;3.37;;;14.10;1.00;;;;;;5115253;27;20441;-77
2021/10/05 05:09:07;;;;;;;8.70;4.10;;;14.00;1.00;;;;;;5117271;27;20440;-79
2021/10/05 05:11:34;;;;;;;7.77;3.37;;;14.00;1.00;;;;;;5116965;27;21331;-79
2021/10/05 05:14:05;;;;;;;7.47;4.33;;;14.00;1.00;;;;;;5120880;27;21766;-78
2021/10/05 05:16:32;;;;;;;5.20;3.80;;;14.00;1.00;;;;;;5113710;27;20451;-77
2021/10/05 05:18:58;;;;;;;8.60;3.90;;;14.00;1.00;;;;;;5116955;27;20445;-77
2021/10/05 05:21:26;;;;;;;11.90;4.20;;;13.90;1.00;;;;;;5119210;27;20909;-77
2021/10/05 05:23:54;;;;;;;9.10;5.87;;;13.90;1.00;;;;;;5121182;27;20527;-78
2021/10/05 05:26:20;;;;;;;6.73;5.60;;;13.90;1.00;;;;;;5119718;27;20461;-79
2021/10/05 05:28:47;;;;;;;6.00;4.33;;;13.90;1.00;;;;;;5124098;27;20507;-79
2021/10/05 05:31:14;;;;;;;6.07;4.90;;;13.80;1.00;;;;;;5119286;27;20477;-78
2021/10/05 05:33:41;;;;;;;5.63;4.23;;;13.80;1.00;;;;;;5125905;27;20459;-81
2021/10/05 05:36:07;;;;;;;7.50;5.00;;;13.80;1.00;;;;;;5122873;27;20457;-79
2021/10/05 05:38:35;;;;;;;5.87;4.60;;;13.80;1.00;;;;;;5127950;27;20557;-79
2021/10/05 05:41:03;;;;;;;12.00;9.27;;;13.80;1.00;;;;;;5132661;27;20437;-77
2021/10/05 05:43:29;;;;;;;5.83;5.00;;;13.80;1.00;;;;;;5124934;27;20509;-78
2021/10/05 05:45:57;;;;;;;7.67;4.47;;;13.80;1.00;;;;;;5112196;27;20492;-78
2021/10/05 05:48:23;;;;;;;6.97;5.57;;;13.80;1.00;;;;;;5119213;27;20455;-77
2021/10/05 05:50:50;;;;;;;7.07;4.80;;;13.80;1.00;;;;;;5123977;27;21919;-78
2021/10/05 05:53:17;;;;;;;7.03;5.27;;;13.80;1.00;;;;;;5124562;27;20441;-78
2021/10/05 05:55:46;;;;;;;10.70;7.60;;;13.80;1.00;;;;;;5122662;27;20457;-78
2021/10/05 05:58:14;;;;;;;8.20;5.43;;;13.80;1.00;;;;;;5122958;27;20564;-78
2021/10/05 06:00:42;;;;;;;9.10;6.77;;;13.80;1.00;;;;;;5122477;27;21066;-78
2021/10/05 06:03:10;;;;;;;7.77;5.83;;;13.80;1.00;;;;;;5123697;27;20505;-78
2021/10/05 06:05:37;;;;;;;9.70;6.70;;;13.90;1.00;;;;;;5125355;27;20473;-78
2021/10/05 06:08:04;;;;;;;8.50;5.97;;;13.90;1.00;;;;;;5127597;27;20437;-79
2021/10/05 06:10:31;;;;;;;8.83;5.77;;;13.90;1.00;;;;;;5117351;27;20547;-79
2021/10/05 06:12:59;;;;;;;12.00;6.27;;;13.90;1.00;;;;;;5123768;27;20438;-78
2021/10/05 06:15:27;;;;;;;11.50;5.23;;;13.90;1.00;;;;;;5124519;27;20460;-77
2021/10/05 06:17:53;;;;;;;7.57;6.77;;;13.90;1.00;;;;;;5120821;27;20427;-79
2021/10/05 06:20:23;;;;;;;7.87;6.03;;;14.00;1.00;;;;;;5131329;27;20552;-77
2021/10/05 06:22:50;;;;;;;8.33;5.90;;;14.00;1.00;;;;;;5120335;27;20462;-78
2021/10/05 06:25:19;;;;;;;14.60;7.47;;;14.10;1.00;;;;;;5118411;27;20426;-77
2021/10/05 06:27:47;;;;;;;8.80;6.43;;;14.10;1.00;;;;;;5119297;27;20432;-79
2021/10/05 06:30:16;;;;;;;8.37;6.43;;;14.10;1.00;;;;;;5121970;27;20408;-79
2021/10/05 06:32:44;;;;;;;12.97;7.90;;;14.10;1.00;;;;;;5119064;27;20445;-78
2021/10/05 06:35:11;;;;;;;9.73;6.93;;;14.10;1.00;;;;;;5122173;27;20419;-78
2021/10/05 06:37:38;;;;;;;9.30;6.47;;;14.10;1.00;;;;;;5104376;27;20445;-77
2021/10/05 06:40:06;;;;;;;20.97;18.87;;;14.10;1.00;;;;;;5118362;27;20541;-78
2021/10/05 06:42:35;;;;;;;7.73;6.37;;;14.10;1.00;;;;;;5118560;27;20530;-78
2021/10/05 06:45:03;;;;;;;7.13;6.33;;;14.20;1.00;;;;;;5115964;27;20519;-77
2021/10/05 06:47:31;;;;;;;10.93;7.80;;;14.20;1.00;;;;;;5128460;27;21094;-77
2021/10/05 06:49:59;;;;;;;8.60;6.73;;;14.20;1.00;;;;;;5127738;27;20465;-77
2021/10/05 06:52:26;;;;;;;7.70;6.60;;;14.30;1.00;;;;;;5117371;27;20457;-78
2021/10/05 06:54:52;;;;;;;9.10;8.00;;;14.30;1.00;;;;;;5112701;27;20464;-77
2021/10/05 06:57:19;;;;;;;11.80;7.93;;;14.40;1.00;;;;;;5105221;27;20438;-78
2021/10/05 06:59:45;;;;;;;8.00;7.20;;;14.40;1.00;;;;;;5111348;27;20837;-78
2021/10/05 07:02:12;;;;;;;11.90;9.50;;;14.40;1.00;;;;;;5110531;27;20449;-79
2021/10/05 07:04:40;;;;;;;8.27;7.10;;;14.50;1.00;;;;;;5111170;27;20453;-79
2021/10/05 07:07:07;;;;;;;9.87;7.83;;;14.50;1.00;;;;;;5111058;27;20444;-79
2021/10/05 07:09:34;;;;;;;10.03;7.30;;;14.60;1.00;;;;;;5114076;27;20457;-79
2021/10/05 07:12:00;;;;;;;12.97;11.63;;;14.70;1.00;;;;;;5107197;27;20538;-79
2021/10/05 07:14:27;;;;;;;9.40;8.30;;;14.80;1.00;;;;;;5113827;27;20579;-79
2021/10/05 07:16:54;;;;;;;9.00;8.20;;;14.80;1.00;;;;;;5110470;27;21398;-77
2021/10/05 07:19:21;;;;;;;9.80;8.77;;;14.90;1.00;;;;;;5115227;27;20437;-80
2021/10/05 07:21:49;;;;;;;10.50;7.57;;;15.00;1.00;;;;;;5097157;27;20431;-79
2021/10/05 07:24:15;;;;;;;10.13;8.67;;;15.00;1.00;;;;;;5126234;27;20436;-79
2021/10/05 07:26:43;;;;;;;10.90;9.70;;;15.00;1.00;;;;;;5119111;27;20447;-79
2021/10/05 07:29:09;;;;;;;13.90;8.97;;;15.00;1.00;;;;;;5123086;27;20453;-77
2021/10/05 07:31:36;;;;;;;10.87;9.87;;;15.10;1.00;;;;;;5117344;27;20989;-78
2021/10/05 07:34:03;;;;;;;11.00;9.90;;;15.30;1.00;;;;;;5120963;27;20446;-78
2021/10/05 07:36:30;;;;;;;11.70;10.20;;;15.30;1.00;;;;;;5128120;27;20403;-79
2021/10/05 07:38:58;;;;;;;12.67;11.20;;;15.40;1.00;;;;;;5099248;27;20454;-79
2021/10/05 07:41:26;;;;;;;10.53;8.87;;;15.40;1.00;;;;;;5110034;27;20451;-78
2021/10/05 07:43:53;;;;;;;10.40;9.30;;;15.40;1.00;;;;;;5118424;27;20458;-78
2021/10/05 07:46:21;;;;;;;11.37;10.27;;;15.30;1.00;;;;;;5115906;27;20846;-79
2021/10/05 07:48:48;;;;;;;11.07;9.97;;;15.20;1.00;;;;;;5117485;27;20446;-78
2021/10/05 07:51:14;;;;;;;16.10;12.10;;;15.20;1.00;;;;;;5111939;27;20450;-78
2021/10/05 07:53:41;;;;;;;12.17;10.80;;;15.10;1.00;;;;;;5095476;27;21611;-78
2021/10/05 07:56:09;;;;;;;13.87;12.40;;;15.10;1.00;;;;;;5110512;27;20581;-78
2021/10/05 07:58:37;;;;;;;16.63;13.50;;;15.10;1.00;;;;;;5114194;27;20450;-78
2021/10/05 08:01:03;;;;;;;14.40;13.00;;;15.10;1.00;;;;;;5106008;27;20612;-80
2021/10/05 08:03:30;;;;;;;14.80;13.40;;;15.20;1.00;;;;;;5099296;27;21426;-78
2021/10/05 08:05:57;;;;;;;14.73;13.20;;;15.20;1.00;;;;;;5110184;27;20840;-78
2021/10/05 08:08:23;;;;;;;16.40;15.00;;;15.20;1.00;;;;;;5094700;27;20443;-79
2021/10/05 08:10:50;;;;;;;18.23;16.33;;;15.20;1.00;;;;;;5111111;27;20427;-78
2021/10/05 08:13:18;;;;;;;18.53;16.23;;;15.20;1.00;;;;;;5115461;27;20418;-78
2021/10/05 08:15:45;;;;;;;16.20;14.60;;;15.30;1.00;;;;;;5112213;27;20458;-78
2021/10/05 08:18:11;;;;;;;17.13;15.47;;;15.30;1.00;;;;;;5105310;27;20554;-77
2021/10/05 08:20:39;;;;;;;25.90;23.23;;;15.30;1.00;;;;;;5108240;27;20475;-78
2021/10/05 08:23:06;;;;;;;16.57;14.97;;;15.30;1.00;;;;;;5112342;27;20469;-79
2021/10/05 08:25:33;;;;;;;18.00;16.10;;;15.30;1.00;;;;;;5108176;27;20457;-78
2021/10/05 08:28:00;;;;;;;18.30;16.40;;;15.40;1.00;;;;;;5111220;27;20510;-78
2021/10/05 08:30:28;;;;;;;18.90;17.20;;;15.40;1.00;;;;;;5109676;27;20470;-79
2021/10/05 08:32:55;;;;;;;19.67;17.70;;;15.40;1.00;;;;;;5108036;27;20418;-80
2021/10/05 08:35:22;;;;;;;19.60;17.60;;;15.40;1.00;;;;;;5104023;27;20422;-77
2021/10/05 08:37:49;;;;;;;19.90;18.00;;;15.40;1.00;;;;;;5112339;27;20458;-80
2021/10/05 08:40:17;;;;;;;21.67;19.60;;;15.40;1.00;;;;;;5097607;27;20442;-79
2021/10/05 08:42:43;;;;;;;22.50;18.90;;;15.40;1.00;;;;;;5103672;27;20457;-79
2021/10/05 08:45:11;;;;;;;23.47;21.03;;;15.30;1.00;;;;;;5113950;27;20961;-78
2021/10/05 08:47:40;;;;;;;22.73;20.60;;;15.30;1.00;;;;;;5105135;27;20569;-78
2021/10/05 08:50:09;;;;;;;23.33;20.90;;;15.30;1.00;;;;;;5106604;27;20454;-79
2021/10/05 08:52:36;;;;;;;21.87;19.77;;;15.20;1.00;;;;;;5107774;27;20442;-78
2021/10/05 08:55:04;;;;;;;23.47;21.07;;;15.10;1.00;;;;;;5106751;27;21229;-77
2021/10/05 08:57:32;;;;;;;24.87;22.20;;;15.00;1.00;;;;;;5107429;27;20455;-78
2021/10/05 09:00:03;;;;;;;24.03;21.63;;;15.00;1.00;;;;;;5115188;27;20458;-80
2021/10/05 09:02:44;;;;;;;23.50;20.80;;;15.00;1.00;;;;;;5103990;27;20600;-78
2021/10/05 09:05:12;;;;;;;24.20;21.80;;;15.00;1.00;;;;;;5114031;27;21766;-78
2021/10/05 09:07:44;;;;;;;23.50;21.07;;;15.00;1.00;;;;;;5116926;27;20446;-79
2021/10/05 09:10:11;;;;;;;26.67;23.73;;;15.10;1.00;;;;;;5114427;27;20450;-79
2021/10/05 09:12:38;;;;;;;24.17;21.77;;;15.10;1.00;;;;;;5114058;27;20552;-79
2021/10/05 09:15:08;;;;;;;30.27;25.23;;;15.10;1.00;;;;;;5116809;27;20485;-79
2021/10/05 09:17:35;;;;;;;26.30;23.70;;;15.20;1.00;;;;;;5118184;27;20422;-79
2021/10/05 09:20:18;;;;;;;27.93;24.00;;;15.30;1.00;;;;;;5091762;27;20470;-80
2021/10/05 09:22:44;;;;;;;24.77;22.40;;;15.30;1.00;;;;;;5116201;27;20463;-78
2021/10/05 09:25:11;;;;;;;27.20;24.33;;;15.30;1.00;;;;;;5112869;27;20535;-77
2021/10/05 09:27:49;;;;;;;27.60;24.80;;;15.30;1.00;;;;;;5120958;27;21446;-78
2021/10/05 09:30:17;;;;;;;28.80;25.60;;;15.30;1.00;;;;;;5123246;27;22462;-78
2021/10/05 09:32:56;;;;;;;29.40;25.80;;;15.40;1.00;;;;;;5122880;27;20537;-77
2021/10/05 09:35:24;;;;;;;27.70;24.80;;;15.40;1.00;;;;;;5119773;27;21328;-78
2021/10/05 09:37:53;;;;;;;28.10;25.07;;;15.40;1.00;;;;;;5123027;27;20454;-78
2021/10/05 09:40:20;;;;;;;27.50;24.53;;;15.50;1.00;;;;;;5117169;27;20457;-78
2021/10/05 09:42:49;;;;;;;29.33;26.10;;;15.50;1.00;;;;;;5120144;27;20471;-78
2021/10/05 09:45:17;;;;;;;33.80;30.30;;;15.50;1.00;;;;;;5134560;27;20458;-79
2021/10/05 09:47:45;;;;;;;26.83;24.13;;;15.50;1.00;;;;;;5117948;27;20457;-78
2021/10/05 09:50:17;;;;;;;29.83;26.83;;;15.40;1.00;;;;;;5112755;27;20442;-79
2021/10/05 09:52:47;;;;;;;30.37;27.10;;;15.40;1.00;;;;;;5105916;27;20472;-79
2021/10/05 09:55:15;;;;;;;26.33;23.70;;;15.40;1.00;;;;;;5112609;27;20933;-79
2021/10/05 09:57:42;;;;;;;28.57;24.50;;;15.30;1.00;;;;;;5110413;27;20430;-78
2021/10/05 10:00:11;;;;;;;29.23;25.70;;;15.30;1.00;;;;;;5110109;27;20555;-77
2021/10/05 10:02:39;;;;;;;32.00;27.83;;;15.30;1.00;;;;;;5114987;27;20427;-78
2021/10/05 10:05:07;;;;;;;31.17;28.10;;;15.30;1.00;;;;;;5114624;27;20433;-78
2021/10/05 10:07:37;;;;;;;30.60;27.13;;;15.30;1.00;;;;;;5119897;27;20475;-80
2021/10/05 10:10:08;;;;;;;31.90;28.60;;;15.40;1.00;;;;;;5117730;27;20438;-79
2021/10/05 10:12:35;;;;;;;30.47;27.47;;;15.40;1.00;;;;;;5113135;27;20446;-79
2021/10/05 10:15:02;;;;;;;31.03;27.80;;;15.50;1.00;;;;;;5117274;27;20551;-79
2021/10/05 10:17:29;;;;;;;35.50;31.77;;;15.50;1.00;;;;;;5116215;27;20459;-78
2021/10/05 10:19:55;;;;;;;31.17;27.97;;;15.50;1.00;;;;;;5115052;27;20456;-80
2021/10/05 10:22:22;;;;;;;35.10;31.63;;;15.50;1.00;;;;;;5112874;27;20466;-77
2021/10/05 10:24:52;;;;;;;39.63;35.43;;;15.50;1.00;;;;;;5112964;27;20435;-79
2021/10/05 10:27:21;;;;;;;35.70;31.97;;;15.50;1.00;;;;;;5110749;27;20572;-78
2021/10/05 10:29:49;;;;;;;34.10;30.60;;;15.50;1.00;;;;;;5114942;27;20515;-79
2021/10/05 10:32:18;;;;;;;35.57;32.17;;;15.50;1.00;;;;;;5115393;27;20463;-78
2021/10/05 10:34:47;;;;;;;33.53;30.23;;;15.50;1.00;;;;;;5118702;27;20447;-79
2021/10/05 10:37:17;;;;;;;35.17;31.47;;;15.50;1.00;;;;;;5113071;27;20898;-78
2021/10/05 10:39:45;;;;;;;37.07;33.17;;;15.50;1.00;;;;;;5115933;27;21310;-78
2021/10/05 10:42:17;;;;;;;35.87;32.17;;;15.50;1.00;;;;;;5114866;27;20455;-79
2021/10/05 10:44:45;;;;;;;36.70;33.00;;;15.50;1.00;;;;;;5114670;27;22093;-78
2021/10/05 10:47:14;;;;;;;35.77;32.03;;;15.60;1.00;;;;;;5118666;27;20509;-78
2021/10/05 10:49:42;;;;;;;36.17;32.47;;;15.60;1.00;;;;;;5113786;27;20447;-78
2021/10/05 10:52:22;;;;;;;35.47;31.97;;;15.70;1.00;;;;;;5112855;27;21062;-83
2021/10/05 10:54:52;;;;;;;38.10;34.30;;;15.70;1.00;;;;;;5112706;27;20438;-77
2021/10/05 10:57:19;;;;;;;36.03;32.23;;;15.70;1.00;;;;;;5100332;27;21668;-78
2021/10/05 10:59:47;;;;;;;38.63;34.53;;;15.80;1.00;;;;;;5113296;27;20460;-78
2021/10/05 11:02:14;;;;;;;37.87;33.10;;;15.70;1.00;;;;;;5110456;27;21215;-78
2021/10/05 11:04:41;;;;;;;36.47;32.77;;;15.80;1.00;;;;;;5113981;27;20451;-78
2021/10/05 11:07:07;;;;;;;36.03;32.47;;;15.80;1.00;;;;;;5113584;27;20454;-78
2021/10/05 11:09:36;;;;;;;34.00;30.53;;;15.90;1.00;;;;;;5113802;27;20628;-79
2021/10/05 11:12:08;;;;;;;34.97;31.27;;;15.80;1.00;;;;;;5117276;27;20452;-79
2021/10/05 11:14:37;;;;;;;37.60;33.67;;;15.80;1.00;;;;;;5119636;27;20433;-79
2021/10/05 11:17:07;;;;;;;36.67;32.90;;;15.80;1.00;;;;;;5113644;27;21067;-79
2021/10/05 11:19:36;;;;;;;35.03;31.50;;;15.80;1.00;;;;;;5114692;27;20455;-81
2021/10/05 11:22:05;;;;;;;35.40;31.80;;;15.90;1.00;;;;;;5111252;27;20474;-79
2021/10/05 11:24:37;;;;;;;33.70;30.50;;;15.80;1.00;;;;;;5114297;27;20467;-80
2021/10/05 11:27:09;;;;;;;35.07;31.57;;;15.80;1.00;;;;;;5116106;27;20418;-79
2021/10/05 11:29:36;;;;;;;35.97;32.20;;;15.80;1.00;;;;;;5116632;27;20452;-78
2021/10/05 11:32:08;;;;;;;35.73;31.93;;;15.70;1.00;;;;;;5109500;27;21411;-78
2021/10/05 11:34:37;;;;;;;34.47;30.87;;;15.80;1.00;;;;;;5111535;27;20448;-78
2021/10/05 11:37:06;;;;;;;34.90;31.47;;;15.80;1.00;;;;;;5107688;27;20587;-78
2021/10/05 11:39:35;;;;;;;37.90;34.00;;;15.80;1.00;;;;;;5114478;27;20718;-79
2021/10/05 11:42:09;;;;;;;37.43;33.43;;;15.90;1.00;;;;;;5111558;27;20466;-78
2021/10/05 11:44:40;;;;;;;36.53;32.73;;;16.00;1.00;;;;;;5101533;27;21189;-79
2021/10/05 11:47:12;;;;;;;36.43;32.60;;;16.10;1.00;;;;;;5111420;27;21321;-79
2021/10/05 11:49:41;;;;;;;35.33;31.77;;;16.20;1.00;;;;;;5112403;27;20458;-79
2021/10/05 11:52:13;;;;;;;35.77;32.27;;;16.20;1.00;;;;;;5111806;27;20476;-78
2021/10/05 11:54:39;;;;;;;35.20;31.80;;;16.20;1.00;;;;;;5109650;27;20487;-78
2021/10/05 11:57:15;;;;;;;34.70;31.30;;;16.10;1.00;;;;;;5111525;27;20435;-78
2021/10/05 11:59:42;;;;;;;33.97;30.43;;;16.10;1.00;;;;;;5114991;27;22716;-80
2021/10/05 12:02:12;;;;;;;34.70;31.10;;;16.00;1.00;;;;;;5115290;27;20459;-79
2021/10/05 12:04:41;;;;;;;35.80;32.20;;;16.00;1.00;;;;;;5114080;27;20427;-79
2021/10/05 12:07:10;;;;;;;34.53;30.90;;;16.10;1.00;;;;;;5105836;27;20464;-78
2021/10/05 12:09:37;;;;;;;35.40;31.90;;;16.10;1.00;;;;;;5108786;27;20460;-78
2021/10/05 12:12:10;;;;;;;37.50;32.87;;;16.20;1.00;;;;;;5112196;27;20460;-77
2021/10/05 12:14:41;;;;;;;34.97;31.23;;;16.20;1.00;;;;;;5116745;27;20420;-78
2021/10/05 12:17:13;;;;;;;36.77;32.93;;;16.20;1.00;;;;;;5120803;27;20437;-78
2021/10/05 12:19:44;;;;;;;34.50;30.90;;;16.20;1.00;;;;;;5123770;27;20511;-82
2021/10/05 12:22:11;;;;;;;37.90;33.87;;;16.20;1.00;;;;;;5116937;27;20522;-78
2021/10/05 12:24:46;;;;;;;35.20;31.90;;;16.10;1.00;;;;;;5112561;27;20439;-78
2021/10/05 12:27:17;;;;;;;36.13;32.33;;;16.20;1.00;;;;;;5111297;27;20469;-79
2021/10/05 12:30:06;;;;;;;35.40;31.80;;;16.20;1.00;;;;;;5111714;27;20547;-79
2021/10/05 12:32:36;;;;;;;35.97;32.17;;;16.40;1.00;;;;;;5108639;27;20451;-78
2021/10/05 12:35:04;;;;;;;37.30;33.03;;;16.40;1.00;;;;;;5125799;27;20448;-78
2021/10/05 12:37:33;;;;;;;37.37;33.23;;;16.40;1.00;;;;;;5109480;27;20436;-78
2021/10/05 12:40:02;;;;;;;37.50;33.00;;;16.40;1.00;;;;;;5108074;27;20443;-79
2021/10/05 12:42:45;;;;;;;38.60;34.50;;;16.40;1.00;;;;;;5106923;27;20866;-78
2021/10/05 12:45:14;;;;;;;39.80;34.20;;;16.30;1.00;;;;;;5095465;27;21515;-79
2021/10/05 12:47:53;;;;;;;38.73;34.60;;;16.20;1.00;;;;;;5108523;27;20436;-79
2021/10/05 12:50:21;;;;;;;42.20;36.33;;;16.20;1.00;;;;;;5114507;27;20918;-77
2021/10/05 12:52:52;;;;;;;40.50;35.30;;;16.10;1.00;;;;;;5092370;27;20881;-79